CG Dependable — NOWK — position and weather

sailwx.info

Track history (hours):
 
Tides and Currents Weather Stations Pressure Air Temp Water Temp Dewpoint Dewpoint Depression Visibility Wind Speed Wind Dir Waves Ship Positions

CG Dependable

Last reported at 2018-May-21 20:03 UTC. Time now 2018-Jul-18 18:30 UTC.
Position N 26°19' W 079°55'.
Warning: this ship's position is 57 days out of date.

Length 64 m; draft 4 m.

Type: Law enforcement. MMSI: 367294000.

Date/timePositionNaut miles runAvg speedWind from/ knotsBaromVisibWave heightAir tempDewpointWater temp
2018-May-21 20:03N 26°19' W 079°55'116.3
2018-May-21 20:00N 26°18' W 079°55'816.3
2018-May-21 19:30N 26°11' W 079°59'612.7
2018-May-21 19:00N 26°06' W 080°04'3 6.3
2018-May-21 18:30N 26°06' W 080°07'0 0.0
2018-May-21 18:00N 26°06' W 080°07'0 0.0
2018-May-21 17:30N 26°06' W 080°07'0 0.0
2018-May-21 17:00N 26°06' W 080°07'0 0.0
2018-May-21 16:31N 26°06' W 080°07'0 0.0
2018-May-21 16:01N 26°06' W 080°07'0 0.0
2018-May-21 15:30N 26°06' W 080°07'0 0.0
2018-May-21 15:01N 26°06' W 080°07'0 0.0
2018-May-21 14:31N 26°06' W 080°07'0 0.0
2018-May-21 14:00N 26°06' W 080°07'0 0.0
2018-May-21 13:30N 26°06' W 080°07'0 0.0
2018-May-21 13:00N 26°06' W 080°07'0 0.0
2018-May-21 12:30N 26°06' W 080°07'0 0.0
2018-May-21 12:00N 26°06' W 080°07'3 6.5
2018-May-21 11:30N 26°05' W 080°04'4 7.1
2018-May-21 11:00N 26°06' W 079°60'3 5.5
2018-May-21 10:30N 26°05' W 079°57'4 7.3
2018-May-21 10:00N 26°02' W 079°56'4 7.7
2018-May-21 09:30N 25°58' W 079°55'4 7.7
2018-May-21 09:00N 25°54' W 079°54'714.1
2018-May-21 08:31N 25°47' W 079°52'4 7.4
2018-May-21 08:00N 25°44' W 079°51'4 8.2
2018-May-21 07:30N 25°40' W 079°50'  
2018-May-17 07:40N 09°32' W 079°56'214.2
2018-May-17 07:30N 09°30' W 079°55'713.1
2018-May-17 07:00N 09°23' W 079°55'5 9.9
2018-May-17 06:30N 09°18' W 079°55'2 1.4
2018-May-17 05:01N 09°16' W 079°55'0 1.5
2018-May-17 04:55N 09°16' W 079°55'1 3.1
2018-May-17 04:28N 09°15' W 079°55'  
Track history (hours):
 
Tides and Currents Weather Stations Pressure Air Temp Water Temp Dewpoint Dewpoint Depression Visibility Wind Speed Wind Dir Waves Ship Positions

CG Dependable

Last reported at 2018-May-21 20:03 UTC. Time now 2018-Jul-18 18:30 UTC.
Position N 26°19' W 079°55'.
Warning: this ship's position is 57 days out of date.

Length 64 m; draft 4 m.

Type: Law enforcement. MMSI: 367294000.

Date/timePositionNaut miles runAvg speedWind from/ knotsBaromVisibWave heightAir tempDewpointWater temp
2018-May-21 20:03N 26°19' W 079°55'116.3
2018-May-21 20:00N 26°18' W 079°55'816.3
2018-May-21 19:30N 26°11' W 079°59'612.7
2018-May-21 19:00N 26°06' W 080°04'3 6.3
2018-May-21 18:30N 26°06' W 080°07'0 0.0
2018-May-21 18:00N 26°06' W 080°07'0 0.0
2018-May-21 17:30N 26°06' W 080°07'0 0.0
2018-May-21 17:00N 26°06' W 080°07'0 0.0
2018-May-21 16:31N 26°06' W 080°07'0 0.0
2018-May-21 16:01N 26°06' W 080°07'0 0.0
2018-May-21 15:30N 26°06' W 080°07'0 0.0
2018-May-21 15:01N 26°06' W 080°07'0 0.0
2018-May-21 14:31N 26°06' W 080°07'0 0.0
2018-May-21 14:00N 26°06' W 080°07'0 0.0
2018-May-21 13:30N 26°06' W 080°07'0 0.0
2018-May-21 13:00N 26°06' W 080°07'0 0.0
2018-May-21 12:30N 26°06' W 080°07'0 0.0
2018-May-21 12:00N 26°06' W 080°07'3 6.5
2018-May-21 11:30N 26°05' W 080°04'4 7.1
2018-May-21 11:00N 26°06' W 079°60'3 5.5
2018-May-21 10:30N 26°05' W 079°57'4 7.3
2018-May-21 10:00N 26°02' W 079°56'4 7.7
2018-May-21 09:30N 25°58' W 079°55'4 7.7
2018-May-21 09:00N 25°54' W 079°54'714.1
2018-May-21 08:31N 25°47' W 079°52'4 7.4
2018-May-21 08:00N 25°44' W 079°51'4 8.2
2018-May-21 07:30N 25°40' W 079°50'  
2018-May-17 07:40N 09°32' W 079°56'214.2
2018-May-17 07:30N 09°30' W 079°55'713.1
2018-May-17 07:00N 09°23' W 079°55'5 9.9
2018-May-17 06:30N 09°18' W 079°55'2 1.4
2018-May-17 05:01N 09°16' W 079°55'0 1.5
2018-May-17 04:55N 09°16' W 079°55'1 3.1
2018-May-17 04:28N 09°15' W 079°55'  

Dump ship's entire track history